sensor_id;sensor_type;location;lat;lon;timestamp;P1;durP1;ratioP1;P2;durP2;ratioP2
823;SDS011;373;49.342;8.146;2023-04-24T00:01:06;1.10;;;0.95;;
823;SDS011;373;49.342;8.146;2023-04-24T00:03:34;1.52;;;1.10;;
823;SDS011;373;49.342;8.146;2023-04-24T00:06:01;1.85;;;1.50;;
823;SDS011;373;49.342;8.146;2023-04-24T00:08:28;1.25;;;1.02;;
823;SDS011;373;49.342;8.146;2023-04-24T00:10:56;2.67;;;1.05;;
823;SDS011;373;49.342;8.146;2023-04-24T00:13:23;1.80;;;1.25;;
823;SDS011;373;49.342;8.146;2023-04-24T00:15:51;1.63;;;0.85;;
823;SDS011;373;49.342;8.146;2023-04-24T00:18:18;0.88;;;0.70;;
823;SDS011;373;49.342;8.146;2023-04-24T00:20:45;1.38;;;0.90;;
823;SDS011;373;49.342;8.146;2023-04-24T00:23:13;1.63;;;1.00;;
823;SDS011;373;49.342;8.146;2023-04-24T00:25:40;2.58;;;1.15;;
823;SDS011;373;49.342;8.146;2023-04-24T00:28:07;1.10;;;1.02;;
823;SDS011;373;49.342;8.146;2023-04-24T00:30:34;2.38;;;0.90;;
823;SDS011;373;49.342;8.146;2023-04-24T00:33:02;0.90;;;0.80;;
823;SDS011;373;49.342;8.146;2023-04-24T00:35:30;1.20;;;1.02;;
823;SDS011;373;49.342;8.146;2023-04-24T00:37:57;1.63;;;1.00;;
823;SDS011;373;49.342;8.146;2023-04-24T00:40:24;1.88;;;1.05;;
823;SDS011;373;49.342;8.146;2023-04-24T00:42:51;1.27;;;0.80;;
823;SDS011;373;49.342;8.146;2023-04-24T00:45:18;2.70;;;0.75;;
823;SDS011;373;49.342;8.146;2023-04-24T00:47:46;3.72;;;0.77;;
823;SDS011;373;49.342;8.146;2023-04-24T00:50:15;1.13;;;0.60;;
823;SDS011;373;49.342;8.146;2023-04-24T00:52:43;3.45;;;1.30;;
823;SDS011;373;49.342;8.146;2023-04-24T00:55:10;1.17;;;0.70;;
823;SDS011;373;49.342;8.146;2023-04-24T00:57:37;1.52;;;1.00;;
823;SDS011;373;49.342;8.146;2023-04-24T01:00:05;1.42;;;0.98;;
823;SDS011;373;49.342;8.146;2023-04-24T01:02:37;2.47;;;0.98;;
823;SDS011;373;49.342;8.146;2023-04-24T01:05:09;1.33;;;0.70;;
823;SDS011;373;49.342;8.146;2023-04-24T01:07:39;2.53;;;1.20;;
823;SDS011;373;49.342;8.146;2023-04-24T01:10:09;2.10;;;1.10;;
823;SDS011;373;49.342;8.146;2023-04-24T01:12:37;1.00;;;0.90;;
823;SDS011;373;49.342;8.146;2023-04-24T01:15:04;1.67;;;1.02;;
823;SDS011;373;49.342;8.146;2023-04-24T01:17:34;2.88;;;1.40;;
823;SDS011;373;49.342;8.146;2023-04-24T01:20:01;3.03;;;1.50;;
823;SDS011;373;49.342;8.146;2023-04-24T01:22:32;2.30;;;1.25;;
823;SDS011;373;49.342;8.146;2023-04-24T01:24:59;1.35;;;1.13;;
823;SDS011;373;49.342;8.146;2023-04-24T01:27:29;3.10;;;1.25;;
823;SDS011;373;49.342;8.146;2023-04-24T01:29:56;1.92;;;1.02;;
823;SDS011;373;49.342;8.146;2023-04-24T01:32:23;2.58;;;1.55;;
823;SDS011;373;49.342;8.146;2023-04-24T01:34:51;2.88;;;1.15;;
823;SDS011;373;49.342;8.146;2023-04-24T01:37:18;2.03;;;1.20;;
823;SDS011;373;49.342;8.146;2023-04-24T01:39:46;1.48;;;1.25;;
823;SDS011;373;49.342;8.146;2023-04-24T01:42:13;2.33;;;1.35;;
823;SDS011;373;49.342;8.146;2023-04-24T01:44:41;2.35;;;1.15;;
823;SDS011;373;49.342;8.146;2023-04-24T01:47:08;1.55;;;1.20;;
823;SDS011;373;49.342;8.146;2023-04-24T01:49:36;2.80;;;1.48;;
823;SDS011;373;49.342;8.146;2023-04-24T01:52:04;2.05;;;1.40;;
823;SDS011;373;49.342;8.146;2023-04-24T01:54:31;1.80;;;1.70;;
823;SDS011;373;49.342;8.146;2023-04-24T01:57:00;2.17;;;1.38;;
823;SDS011;373;49.342;8.146;2023-04-24T01:59:28;1.70;;;1.15;;
823;SDS011;373;49.342;8.146;2023-04-24T02:01:56;3.22;;;1.35;;
823;SDS011;373;49.342;8.146;2023-04-24T02:04:23;1.92;;;1.73;;
823;SDS011;373;49.342;8.146;2023-04-24T02:06:50;1.80;;;1.10;;
823;SDS011;373;49.342;8.146;2023-04-24T02:09:17;1.92;;;1.63;;
823;SDS011;373;49.342;8.146;2023-04-24T02:11:44;1.15;;;1.08;;
823;SDS011;373;49.342;8.146;2023-04-24T02:14:12;1.95;;;1.30;;
823;SDS011;373;49.342;8.146;2023-04-24T02:16:39;1.45;;;1.35;;
823;SDS011;373;49.342;8.146;2023-04-24T02:19:06;1.08;;;1.08;;
823;SDS011;373;49.342;8.146;2023-04-24T02:21:34;2.05;;;1.10;;
823;SDS011;373;49.342;8.146;2023-04-24T02:24:01;1.50;;;1.30;;
823;SDS011;373;49.342;8.146;2023-04-24T02:26:28;1.45;;;1.00;;
823;SDS011;373;49.342;8.146;2023-04-24T02:28:57;0.88;;;0.82;;
823;SDS011;373;49.342;8.146;2023-04-24T02:31:25;1.77;;;1.23;;
823;SDS011;373;49.342;8.146;2023-04-24T02:33:52;1.25;;;1.15;;
823;SDS011;373;49.342;8.146;2023-04-24T02:36:19;1.98;;;1.05;;
823;SDS011;373;49.342;8.146;2023-04-24T02:38:47;3.50;;;1.30;;
823;SDS011;373;49.342;8.146;2023-04-24T02:41:14;1.75;;;1.15;;
823;SDS011;373;49.342;8.146;2023-04-24T02:43:41;2.40;;;1.40;;
823;SDS011;373;49.342;8.146;2023-04-24T02:46:08;1.73;;;1.50;;
823;SDS011;373;49.342;8.146;2023-04-24T02:48:37;1.40;;;1.30;;
823;SDS011;373;49.342;8.146;2023-04-24T02:51:05;2.00;;;1.00;;
823;SDS011;373;49.342;8.146;2023-04-24T02:53:32;1.23;;;1.13;;
823;SDS011;373;49.342;8.146;2023-04-24T02:55:59;1.17;;;0.90;;
823;SDS011;373;49.342;8.146;2023-04-24T02:58:27;1.70;;;1.30;;
823;SDS011;373;49.342;8.146;2023-04-24T03:00:54;1.25;;;1.02;;
823;SDS011;373;49.342;8.146;2023-04-24T03:03:21;0.88;;;0.80;;
823;SDS011;373;49.342;8.146;2023-04-24T03:05:50;0.90;;;0.90;;
823;SDS011;373;49.342;8.146;2023-04-24T03:08:17;1.13;;;0.90;;
823;SDS011;373;49.342;8.146;2023-04-24T03:10:45;2.42;;;0.75;;
823;SDS011;373;49.342;8.146;2023-04-24T03:13:14;0.80;;;0.80;;
823;SDS011;373;49.342;8.146;2023-04-24T03:15:42;1.13;;;0.70;;
823;SDS011;373;49.342;8.146;2023-04-24T03:18:10;0.88;;;0.70;;
823;SDS011;373;49.342;8.146;2023-04-24T03:20:37;0.55;;;0.55;;
823;SDS011;373;49.342;8.146;2023-04-24T03:23:05;0.73;;;0.73;;
823;SDS011;373;49.342;8.146;2023-04-24T03:25:33;1.73;;;1.00;;
823;SDS011;373;49.342;8.146;2023-04-24T03:28:01;1.65;;;0.70;;
823;SDS011;373;49.342;8.146;2023-04-24T03:30:38;0.80;;;0.80;;
823;SDS011;373;49.342;8.146;2023-04-24T03:33:06;1.52;;;1.00;;
823;SDS011;373;49.342;8.146;2023-04-24T03:35:37;2.15;;;1.23;;
823;SDS011;373;49.342;8.146;2023-04-24T03:38:09;1.10;;;1.05;;
823;SDS011;373;49.342;8.146;2023-04-24T03:40:58;1.55;;;1.48;;
823;SDS011;373;49.342;8.146;2023-04-24T03:43:48;3.53;;;2.03;;
823;SDS011;373;49.342;8.146;2023-04-24T03:46:15;3.00;;;2.08;;
823;SDS011;373;49.342;8.146;2023-04-24T03:48:56;1.50;;;1.40;;
823;SDS011;373;49.342;8.146;2023-04-24T03:51:27;2.92;;;2.03;;
823;SDS011;373;49.342;8.146;2023-04-24T03:54:02;2.00;;;1.90;;
823;SDS011;373;49.342;8.146;2023-04-24T03:56:33;2.00;;;1.75;;
823;SDS011;373;49.342;8.146;2023-04-24T03:59:00;2.40;;;2.13;;
823;SDS011;373;49.342;8.146;2023-04-24T04:01:28;1.98;;;1.80;;
823;SDS011;373;49.342;8.146;2023-04-24T04:04:04;2.95;;;2.00;;
823;SDS011;373;49.342;8.146;2023-04-24T04:06:31;2.65;;;2.05;;
823;SDS011;373;49.342;8.146;2023-04-24T04:08:59;2.25;;;2.05;;
823;SDS011;373;49.342;8.146;2023-04-24T04:11:28;2.63;;;1.98;;
823;SDS011;373;49.342;8.146;2023-04-24T04:13:56;2.92;;;2.42;;
823;SDS011;373;49.342;8.146;2023-04-24T04:16:24;3.45;;;2.20;;
823;SDS011;373;49.342;8.146;2023-04-24T04:18:56;3.13;;;1.73;;
823;SDS011;373;49.342;8.146;2023-04-24T04:21:24;3.03;;;2.80;;
823;SDS011;373;49.342;8.146;2023-04-24T04:23:59;2.95;;;2.65;;
823;SDS011;373;49.342;8.146;2023-04-24T04:26:33;4.70;;;2.90;;
823;SDS011;373;49.342;8.146;2023-04-24T04:29:03;3.38;;;2.45;;
823;SDS011;373;49.342;8.146;2023-04-24T04:31:33;4.03;;;2.70;;
823;SDS011;373;49.342;8.146;2023-04-24T04:34:05;3.88;;;2.85;;
823;SDS011;373;49.342;8.146;2023-04-24T04:36:34;2.67;;;2.47;;
823;SDS011;373;49.342;8.146;2023-04-24T04:39:12;3.15;;;2.88;;
823;SDS011;373;49.342;8.146;2023-04-24T04:41:57;3.40;;;2.60;;
823;SDS011;373;49.342;8.146;2023-04-24T04:44:31;2.78;;;2.58;;
823;SDS011;373;49.342;8.146;2023-04-24T04:47:10;3.22;;;2.90;;
823;SDS011;373;49.342;8.146;2023-04-24T04:49:43;2.88;;;2.60;;
823;SDS011;373;49.342;8.146;2023-04-24T04:52:18;2.88;;;2.63;;
823;SDS011;373;49.342;8.146;2023-04-24T04:54:49;3.55;;;2.85;;
823;SDS011;373;49.342;8.146;2023-04-24T04:57:18;3.85;;;3.22;;
823;SDS011;373;49.342;8.146;2023-04-24T04:59:48;3.30;;;3.00;;
823;SDS011;373;49.342;8.146;2023-04-24T05:02:25;3.40;;;3.10;;
823;SDS011;373;49.342;8.146;2023-04-24T05:04:52;3.22;;;2.92;;
823;SDS011;373;49.342;8.146;2023-04-24T05:07:19;4.00;;;2.88;;
823;SDS011;373;49.342;8.146;2023-04-24T05:09:50;3.50;;;2.53;;
823;SDS011;373;49.342;8.146;2023-04-24T05:12:19;4.13;;;2.90;;
823;SDS011;373;49.342;8.146;2023-04-24T05:14:51;2.67;;;2.40;;
823;SDS011;373;49.342;8.146;2023-04-24T05:17:18;3.15;;;2.85;;
823;SDS011;373;49.342;8.146;2023-04-24T05:19:45;3.20;;;2.88;;
823;SDS011;373;49.342;8.146;2023-04-24T05:22:14;4.15;;;2.75;;
823;SDS011;373;49.342;8.146;2023-04-24T05:24:48;2.90;;;2.70;;
823;SDS011;373;49.342;8.146;2023-04-24T05:27:39;3.42;;;3.13;;
823;SDS011;373;49.342;8.146;2023-04-24T05:30:13;2.90;;;2.55;;
823;SDS011;373;49.342;8.146;2023-04-24T05:32:40;3.10;;;2.80;;
823;SDS011;373;49.342;8.146;2023-04-24T05:35:08;2.40;;;2.20;;
823;SDS011;373;49.342;8.146;2023-04-24T05:37:35;3.15;;;2.78;;
823;SDS011;373;49.342;8.146;2023-04-24T05:40:03;3.03;;;2.65;;
823;SDS011;373;49.342;8.146;2023-04-24T05:42:31;2.78;;;2.58;;
823;SDS011;373;49.342;8.146;2023-04-24T05:44:59;3.00;;;2.70;;
823;SDS011;373;49.342;8.146;2023-04-24T05:47:26;2.65;;;2.45;;
823;SDS011;373;49.342;8.146;2023-04-24T05:49:54;3.22;;;2.42;;
823;SDS011;373;49.342;8.146;2023-04-24T05:52:21;2.08;;;1.95;;
823;SDS011;373;49.342;8.146;2023-04-24T05:54:49;2.00;;;1.80;;
823;SDS011;373;49.342;8.146;2023-04-24T05:57:20;1.83;;;1.40;;
823;SDS011;373;49.342;8.146;2023-04-24T05:59:52;2.67;;;1.80;;
823;SDS011;373;49.342;8.146;2023-04-24T06:02:22;1.02;;;1.02;;
823;SDS011;373;49.342;8.146;2023-04-24T06:04:49;0.85;;;0.85;;
823;SDS011;373;49.342;8.146;2023-04-24T06:07:17;1.05;;;0.95;;
823;SDS011;373;49.342;8.146;2023-04-24T06:09:44;0.88;;;0.70;;
823;SDS011;373;49.342;8.146;2023-04-24T06:12:12;1.13;;;0.90;;
823;SDS011;373;49.342;8.146;2023-04-24T06:14:51;1.55;;;1.10;;
823;SDS011;373;49.342;8.146;2023-04-24T06:17:37;2.00;;;1.38;;
823;SDS011;373;49.342;8.146;2023-04-24T06:20:06;0.70;;;0.70;;
823;SDS011;373;49.342;8.146;2023-04-24T06:22:34;1.15;;;0.63;;
823;SDS011;373;49.342;8.146;2023-04-24T06:25:02;0.73;;;0.73;;
823;SDS011;373;49.342;8.146;2023-04-24T06:27:30;0.80;;;0.80;;
823;SDS011;373;49.342;8.146;2023-04-24T06:29:57;1.33;;;0.80;;
823;SDS011;373;49.342;8.146;2023-04-24T06:32:24;1.90;;;1.17;;
823;SDS011;373;49.342;8.146;2023-04-24T06:34:53;2.53;;;1.13;;
823;SDS011;373;49.342;8.146;2023-04-24T06:37:20;1.00;;;0.90;;
823;SDS011;373;49.342;8.146;2023-04-24T06:39:48;1.15;;;1.05;;
823;SDS011;373;49.342;8.146;2023-04-24T06:42:15;1.15;;;0.80;;
823;SDS011;373;49.342;8.146;2023-04-24T06:44:43;1.02;;;0.95;;
823;SDS011;373;49.342;8.146;2023-04-24T06:47:10;1.27;;;1.17;;
823;SDS011;373;49.342;8.146;2023-04-24T06:49:39;1.20;;;1.10;;
823;SDS011;373;49.342;8.146;2023-04-24T06:52:07;2.30;;;1.60;;
823;SDS011;373;49.342;8.146;2023-04-24T06:54:35;1.50;;;1.40;;
823;SDS011;373;49.342;8.146;2023-04-24T06:57:02;1.77;;;1.67;;
823;SDS011;373;49.342;8.146;2023-04-24T06:59:29;2.30;;;1.33;;
823;SDS011;373;49.342;8.146;2023-04-24T07:01:56;2.00;;;1.70;;
823;SDS011;373;49.342;8.146;2023-04-24T07:04:24;1.75;;;1.33;;
823;SDS011;373;49.342;8.146;2023-04-24T07:06:51;1.75;;;1.65;;
823;SDS011;373;49.342;8.146;2023-04-24T07:09:24;1.58;;;1.35;;
823;SDS011;373;49.342;8.146;2023-04-24T07:11:52;1.55;;;1.45;;
823;SDS011;373;49.342;8.146;2023-04-24T07:14:19;1.35;;;1.25;;
823;SDS011;373;49.342;8.146;2023-04-24T07:16:47;1.70;;;1.60;;
823;SDS011;373;49.342;8.146;2023-04-24T07:19:14;1.10;;;1.02;;
823;SDS011;373;49.342;8.146;2023-04-24T07:21:41;1.98;;;1.50;;
823;SDS011;373;49.342;8.146;2023-04-24T07:24:08;2.13;;;1.20;;
823;SDS011;373;49.342;8.146;2023-04-24T07:26:38;1.33;;;1.20;;
823;SDS011;373;49.342;8.146;2023-04-24T07:29:05;4.07;;;1.70;;
823;SDS011;373;49.342;8.146;2023-04-24T07:31:33;1.67;;;1.52;;
823;SDS011;373;49.342;8.146;2023-04-24T07:34:00;1.42;;;1.33;;
823;SDS011;373;49.342;8.146;2023-04-24T07:36:27;2.15;;;1.38;;
823;SDS011;373;49.342;8.146;2023-04-24T07:38:54;1.55;;;1.30;;
823;SDS011;373;49.342;8.146;2023-04-24T07:41:22;1.55;;;1.30;;
823;SDS011;373;49.342;8.146;2023-04-24T07:43:50;1.52;;;1.38;;
823;SDS011;373;49.342;8.146;2023-04-24T07:46:18;1.67;;;1.40;;
823;SDS011;373;49.342;8.146;2023-04-24T07:48:46;1.50;;;1.30;;
823;SDS011;373;49.342;8.146;2023-04-24T07:51:13;2.42;;;1.30;;
823;SDS011;373;49.342;8.146;2023-04-24T07:53:41;2.15;;;1.55;;
823;SDS011;373;49.342;8.146;2023-04-24T07:56:08;1.40;;;1.30;;
823;SDS011;373;49.342;8.146;2023-04-24T07:58:35;3.75;;;1.60;;
823;SDS011;373;49.342;8.146;2023-04-24T08:01:04;1.52;;;1.42;;
823;SDS011;373;49.342;8.146;2023-04-24T08:03:31;3.70;;;1.73;;
823;SDS011;373;49.342;8.146;2023-04-24T08:05:58;1.65;;;1.42;;
823;SDS011;373;49.342;8.146;2023-04-24T08:08:25;1.80;;;1.70;;
823;SDS011;373;49.342;8.146;2023-04-24T08:10:52;2.83;;;1.42;;
823;SDS011;373;49.342;8.146;2023-04-24T08:13:20;1.48;;;1.38;;
823;SDS011;373;49.342;8.146;2023-04-24T08:15:47;1.75;;;1.55;;
823;SDS011;373;49.342;8.146;2023-04-24T08:18:15;1.63;;;1.52;;
823;SDS011;373;49.342;8.146;2023-04-24T08:20:42;1.90;;;1.70;;
823;SDS011;373;49.342;8.146;2023-04-24T08:23:10;2.33;;;1.73;;
823;SDS011;373;49.342;8.146;2023-04-24T08:25:37;2.30;;;1.48;;
823;SDS011;373;49.342;8.146;2023-04-24T08:28:05;1.50;;;1.40;;
823;SDS011;373;49.342;8.146;2023-04-24T08:30:33;1.77;;;1.50;;
823;SDS011;373;49.342;8.146;2023-04-24T08:33:00;1.77;;;1.67;;
823;SDS011;373;49.342;8.146;2023-04-24T08:35:28;2.47;;;1.38;;
823;SDS011;373;49.342;8.146;2023-04-24T08:37:55;1.48;;;1.05;;
823;SDS011;373;49.342;8.146;2023-04-24T08:40:26;1.25;;;1.15;;
823;SDS011;373;49.342;8.146;2023-04-24T08:42:55;2.42;;;1.73;;
823;SDS011;373;49.342;8.146;2023-04-24T08:45:22;2.08;;;1.27;;
823;SDS011;373;49.342;8.146;2023-04-24T08:47:50;1.52;;;1.35;;
823;SDS011;373;49.342;8.146;2023-04-24T08:50:19;1.58;;;1.40;;
823;SDS011;373;49.342;8.146;2023-04-24T08:52:51;2.10;;;1.30;;
823;SDS011;373;49.342;8.146;2023-04-24T08:55:19;1.95;;;1.70;;
823;SDS011;373;49.342;8.146;2023-04-24T08:57:50;1.77;;;1.65;;
823;SDS011;373;49.342;8.146;2023-04-24T09:00:19;2.47;;;2.00;;
823;SDS011;373;49.342;8.146;2023-04-24T09:02:47;4.00;;;1.80;;
823;SDS011;373;49.342;8.146;2023-04-24T09:05:16;1.98;;;1.70;;
823;SDS011;373;49.342;8.146;2023-04-24T09:07:45;3.33;;;2.10;;
823;SDS011;373;49.342;8.146;2023-04-24T09:10:16;2.03;;;1.83;;
823;SDS011;373;49.342;8.146;2023-04-24T09:12:44;1.60;;;1.50;;
823;SDS011;373;49.342;8.146;2023-04-24T09:15:11;3.60;;;1.67;;
823;SDS011;373;49.342;8.146;2023-04-24T09:17:38;3.15;;;2.03;;
823;SDS011;373;49.342;8.146;2023-04-24T09:20:06;3.33;;;2.50;;
823;SDS011;373;49.342;8.146;2023-04-24T09:22:34;3.75;;;2.85;;
823;SDS011;373;49.342;8.146;2023-04-24T09:25:02;2.50;;;2.30;;
823;SDS011;373;49.342;8.146;2023-04-24T09:27:32;1.95;;;1.83;;
823;SDS011;373;49.342;8.146;2023-04-24T09:29:59;2.42;;;2.22;;
823;SDS011;373;49.342;8.146;2023-04-24T09:32:27;2.45;;;2.17;;
823;SDS011;373;49.342;8.146;2023-04-24T09:35:08;2.40;;;2.20;;
823;SDS011;373;49.342;8.146;2023-04-24T09:37:37;2.28;;;2.08;;
823;SDS011;373;49.342;8.146;2023-04-24T09:40:10;2.47;;;2.28;;
823;SDS011;373;49.342;8.146;2023-04-24T09:42:41;3.53;;;2.22;;
823;SDS011;373;49.342;8.146;2023-04-24T09:45:10;2.10;;;1.90;;
823;SDS011;373;49.342;8.146;2023-04-24T09:47:38;1.95;;;1.85;;
823;SDS011;373;49.342;8.146;2023-04-24T09:50:09;2.33;;;2.13;;
823;SDS011;373;49.342;8.146;2023-04-24T09:52:39;2.45;;;1.83;;
823;SDS011;373;49.342;8.146;2023-04-24T09:55:11;1.73;;;1.63;;
823;SDS011;373;49.342;8.146;2023-04-24T09:57:51;1.48;;;1.38;;
823;SDS011;373;49.342;8.146;2023-04-24T10:00:23;1.70;;;1.60;;
823;SDS011;373;49.342;8.146;2023-04-24T10:02:54;1.65;;;1.30;;
823;SDS011;373;49.342;8.146;2023-04-24T10:05:27;2.85;;;1.70;;
823;SDS011;373;49.342;8.146;2023-04-24T10:08:02;1.60;;;1.50;;
823;SDS011;373;49.342;8.146;2023-04-24T10:10:29;2.58;;;1.92;;
823;SDS011;373;49.342;8.146;2023-04-24T10:12:58;2.03;;;1.90;;
823;SDS011;373;49.342;8.146;2023-04-24T10:15:26;2.28;;;1.42;;
823;SDS011;373;49.342;8.146;2023-04-24T10:17:53;2.80;;;2.08;;
823;SDS011;373;49.342;8.146;2023-04-24T10:20:20;2.92;;;2.08;;
823;SDS011;373;49.342;8.146;2023-04-24T10:22:49;2.85;;;2.75;;
823;SDS011;373;49.342;8.146;2023-04-24T10:25:18;2.20;;;2.00;;
823;SDS011;373;49.342;8.146;2023-04-24T10:27:47;2.10;;;1.90;;
823;SDS011;373;49.342;8.146;2023-04-24T10:30:17;2.65;;;1.98;;
823;SDS011;373;49.342;8.146;2023-04-24T10:32:44;2.60;;;2.40;;
823;SDS011;373;49.342;8.146;2023-04-24T10:35:12;2.80;;;2.03;;
823;SDS011;373;49.342;8.146;2023-04-24T10:37:42;3.88;;;2.55;;
823;SDS011;373;49.342;8.146;2023-04-24T10:40:12;2.45;;;2.25;;
823;SDS011;373;49.342;8.146;2023-04-24T10:42:46;2.92;;;2.72;;
823;SDS011;373;49.342;8.146;2023-04-24T10:45:19;3.25;;;2.90;;
823;SDS011;373;49.342;8.146;2023-04-24T10:47:50;2.78;;;2.58;;
823;SDS011;373;49.342;8.146;2023-04-24T10:50:19;3.60;;;2.75;;
823;SDS011;373;49.342;8.146;2023-04-24T10:52:46;2.85;;;2.65;;
823;SDS011;373;49.342;8.146;2023-04-24T10:55:13;2.47;;;2.28;;
823;SDS011;373;49.342;8.146;2023-04-24T11:00:30;3.08;;;2.50;;
823;SDS011;373;49.342;8.146;2023-04-24T11:02:57;2.78;;;2.58;;
823;SDS011;373;49.342;8.146;2023-04-24T11:08:22;3.30;;;2.78;;
823;SDS011;373;49.342;8.146;2023-04-24T11:10:55;3.45;;;3.15;;
823;SDS011;373;49.342;8.146;2023-04-24T11:13:24;2.90;;;2.63;;
823;SDS011;373;49.342;8.146;2023-04-24T11:18:49;4.60;;;3.65;;
823;SDS011;373;49.342;8.146;2023-04-24T11:21:19;3.95;;;3.53;;
823;SDS011;373;49.342;8.146;2023-04-24T11:23:48;3.63;;;3.28;;
823;SDS011;373;49.342;8.146;2023-04-24T11:26:21;4.22;;;3.20;;
823;SDS011;373;49.342;8.146;2023-04-24T11:28:52;2.97;;;2.75;;
823;SDS011;373;49.342;8.146;2023-04-24T11:31:35;3.17;;;2.95;;
823;SDS011;373;49.342;8.146;2023-04-24T11:34:07;3.40;;;3.15;;
823;SDS011;373;49.342;8.146;2023-04-24T11:36:35;3.88;;;3.05;;
823;SDS011;373;49.342;8.146;2023-04-24T11:39:03;4.13;;;3.42;;
823;SDS011;373;49.342;8.146;2023-04-24T11:41:30;3.75;;;3.45;;
823;SDS011;373;49.342;8.146;2023-04-24T11:43:57;4.43;;;3.65;;
823;SDS011;373;49.342;8.146;2023-04-24T11:46:27;3.38;;;3.08;;
823;SDS011;373;49.342;8.146;2023-04-24T11:48:56;3.28;;;2.97;;
823;SDS011;373;49.342;8.146;2023-04-24T11:51:24;3.25;;;2.95;;
823;SDS011;373;49.342;8.146;2023-04-24T11:53:51;3.78;;;3.00;;
823;SDS011;373;49.342;8.146;2023-04-24T11:56:19;2.88;;;2.60;;
823;SDS011;373;49.342;8.146;2023-04-24T11:58:47;2.78;;;1.98;;
823;SDS011;373;49.342;8.146;2023-04-24T12:01:14;4.53;;;2.67;;
823;SDS011;373;49.342;8.146;2023-04-24T12:03:41;2.63;;;2.42;;
823;SDS011;373;49.342;8.146;2023-04-24T12:06:14;2.33;;;2.13;;
823;SDS011;373;49.342;8.146;2023-04-24T12:08:41;3.45;;;2.58;;
823;SDS011;373;49.342;8.146;2023-04-24T12:11:14;3.05;;;2.75;;
823;SDS011;373;49.342;8.146;2023-04-24T12:13:43;3.05;;;2.60;;
823;SDS011;373;49.342;8.146;2023-04-24T12:16:10;3.22;;;2.92;;
823;SDS011;373;49.342;8.146;2023-04-24T12:18:41;3.83;;;2.60;;
823;SDS011;373;49.342;8.146;2023-04-24T12:21:17;2.90;;;2.50;;
823;SDS011;373;49.342;8.146;2023-04-24T12:23:45;2.75;;;2.47;;
823;SDS011;373;49.342;8.146;2023-04-24T12:26:15;3.90;;;2.80;;
823;SDS011;373;49.342;8.146;2023-04-24T12:28:45;3.20;;;2.90;;
823;SDS011;373;49.342;8.146;2023-04-24T12:31:14;3.47;;;2.55;;
823;SDS011;373;49.342;8.146;2023-04-24T12:33:41;3.88;;;2.47;;
823;SDS011;373;49.342;8.146;2023-04-24T12:36:09;2.75;;;2.25;;
823;SDS011;373;49.342;8.146;2023-04-24T12:38:43;2.83;;;2.63;;
823;SDS011;373;49.342;8.146;2023-04-24T12:41:12;2.53;;;2.33;;
823;SDS011;373;49.342;8.146;2023-04-24T12:43:50;2.97;;;2.67;;
823;SDS011;373;49.342;8.146;2023-04-24T12:46:18;3.50;;;2.80;;
823;SDS011;373;49.342;8.146;2023-04-24T12:48:46;3.03;;;2.55;;
823;SDS011;373;49.342;8.146;2023-04-24T12:51:13;2.72;;;2.53;;
823;SDS011;373;49.342;8.146;2023-04-24T12:53:41;3.50;;;3.13;;
823;SDS011;373;49.342;8.146;2023-04-24T12:56:08;2.67;;;2.42;;
823;SDS011;373;49.342;8.146;2023-04-24T12:58:35;3.60;;;2.78;;
823;SDS011;373;49.342;8.146;2023-04-24T13:01:02;2.42;;;2.22;;
823;SDS011;373;49.342;8.146;2023-04-24T13:03:29;3.60;;;3.30;;
823;SDS011;373;49.342;8.146;2023-04-24T13:05:56;3.28;;;2.50;;
823;SDS011;373;49.342;8.146;2023-04-24T13:08:23;3.53;;;2.63;;
823;SDS011;373;49.342;8.146;2023-04-24T13:10:52;2.40;;;2.20;;
823;SDS011;373;49.342;8.146;2023-04-24T13:13:19;2.40;;;2.20;;
823;SDS011;373;49.342;8.146;2023-04-24T13:15:46;3.33;;;2.75;;
823;SDS011;373;49.342;8.146;2023-04-24T13:18:13;2.70;;;2.50;;
823;SDS011;373;49.342;8.146;2023-04-24T13:20:40;3.22;;;2.38;;
823;SDS011;373;49.342;8.146;2023-04-24T13:23:07;2.65;;;1.92;;
823;SDS011;373;49.342;8.146;2023-04-24T13:25:35;2.25;;;2.03;;
823;SDS011;373;49.342;8.146;2023-04-24T13:28:05;2.22;;;2.03;;
823;SDS011;373;49.342;8.146;2023-04-24T13:30:32;4.10;;;2.05;;
823;SDS011;373;49.342;8.146;2023-04-24T13:32:59;4.30;;;2.42;;
823;SDS011;373;49.342;8.146;2023-04-24T13:35:27;2.67;;;2.47;;
823;SDS011;373;49.342;8.146;2023-04-24T13:37:54;2.90;;;2.70;;
823;SDS011;373;49.342;8.146;2023-04-24T13:40:21;2.55;;;1.98;;
823;SDS011;373;49.342;8.146;2023-04-24T13:42:48;2.70;;;2.15;;
823;SDS011;373;49.342;8.146;2023-04-24T13:45:17;3.15;;;2.47;;
823;SDS011;373;49.342;8.146;2023-04-24T13:47:44;3.58;;;2.30;;
823;SDS011;373;49.342;8.146;2023-04-24T13:50:11;3.13;;;2.25;;
823;SDS011;373;49.342;8.146;2023-04-24T13:52:38;3.75;;;2.22;;
823;SDS011;373;49.342;8.146;2023-04-24T13:55:06;2.95;;;2.75;;
823;SDS011;373;49.342;8.146;2023-04-24T13:57:33;2.67;;;2.47;;
823;SDS011;373;49.342;8.146;2023-04-24T14:00:00;3.08;;;2.70;;
823;SDS011;373;49.342;8.146;2023-04-24T14:02:34;3.15;;;2.60;;
823;SDS011;373;49.342;8.146;2023-04-24T14:05:01;4.07;;;3.35;;
823;SDS011;373;49.342;8.146;2023-04-24T14:07:28;3.58;;;3.28;;
823;SDS011;373;49.342;8.146;2023-04-24T14:09:55;3.25;;;3.03;;
823;SDS011;373;49.342;8.146;2023-04-24T14:12:23;3.88;;;3.53;;
823;SDS011;373;49.342;8.146;2023-04-24T14:14:51;3.33;;;3.05;;
823;SDS011;373;49.342;8.146;2023-04-24T14:17:18;4.40;;;3.63;;
823;SDS011;373;49.342;8.146;2023-04-24T14:19:46;3.83;;;3.22;;
823;SDS011;373;49.342;8.146;2023-04-24T14:22:13;3.65;;;2.58;;
823;SDS011;373;49.342;8.146;2023-04-24T14:24:40;3.20;;;2.90;;
823;SDS011;373;49.342;8.146;2023-04-24T14:27:07;2.00;;;1.85;;
823;SDS011;373;49.342;8.146;2023-04-24T14:29:35;2.30;;;2.10;;
823;SDS011;373;49.342;8.146;2023-04-24T14:32:02;2.75;;;2.10;;
823;SDS011;373;49.342;8.146;2023-04-24T14:34:29;2.70;;;2.50;;
823;SDS011;373;49.342;8.146;2023-04-24T14:36:57;2.35;;;1.80;;
823;SDS011;373;49.342;8.146;2023-04-24T14:39:25;2.47;;;2.28;;
823;SDS011;373;49.342;8.146;2023-04-24T14:41:52;2.90;;;2.70;;
823;SDS011;373;49.342;8.146;2023-04-24T14:44:19;2.42;;;2.22;;
823;SDS011;373;49.342;8.146;2023-04-24T14:46:46;2.97;;;2.40;;
823;SDS011;373;49.342;8.146;2023-04-24T14:49:14;4.78;;;2.50;;
823;SDS011;373;49.342;8.146;2023-04-24T14:51:41;6.68;;;2.95;;
823;SDS011;373;49.342;8.146;2023-04-24T14:54:10;2.70;;;2.50;;
823;SDS011;373;49.342;8.146;2023-04-24T14:56:37;2.60;;;2.40;;
823;SDS011;373;49.342;8.146;2023-04-24T15:01:58;2.15;;;1.95;;
823;SDS011;373;49.342;8.146;2023-04-24T15:04:26;3.22;;;2.92;;
823;SDS011;373;49.342;8.146;2023-04-24T15:06:54;3.88;;;3.05;;
823;SDS011;373;49.342;8.146;2023-04-24T15:09:23;3.63;;;3.20;;
823;SDS011;373;49.342;8.146;2023-04-24T15:11:52;3.47;;;3.05;;
823;SDS011;373;49.342;8.146;2023-04-24T15:14:19;6.40;;;3.35;;
823;SDS011;373;49.342;8.146;2023-04-24T15:16:47;4.57;;;3.10;;
823;SDS011;373;49.342;8.146;2023-04-24T15:19:14;3.40;;;2.75;;
823;SDS011;373;49.342;8.146;2023-04-24T15:21:41;3.05;;;2.72;;
823;SDS011;373;49.342;8.146;2023-04-24T15:24:09;3.33;;;2.85;;
823;SDS011;373;49.342;8.146;2023-04-24T15:26:38;4.00;;;2.40;;
823;SDS011;373;49.342;8.146;2023-04-24T15:29:05;2.78;;;2.17;;
823;SDS011;373;49.342;8.146;2023-04-24T15:31:32;1.80;;;1.70;;
823;SDS011;373;49.342;8.146;2023-04-24T15:33:59;1.77;;;1.67;;
823;SDS011;373;49.342;8.146;2023-04-24T15:36:26;2.10;;;1.90;;
823;SDS011;373;49.342;8.146;2023-04-24T15:38:53;1.98;;;1.80;;
823;SDS011;373;49.342;8.146;2023-04-24T15:41:20;1.70;;;1.60;;
823;SDS011;373;49.342;8.146;2023-04-24T15:43:49;2.08;;;1.70;;
823;SDS011;373;49.342;8.146;2023-04-24T15:46:16;2.05;;;1.90;;
823;SDS011;373;49.342;8.146;2023-04-24T15:48:43;2.20;;;2.00;;
823;SDS011;373;49.342;8.146;2023-04-24T15:51:10;1.40;;;1.30;;
823;SDS011;373;49.342;8.146;2023-04-24T15:53:37;1.23;;;1.15;;
823;SDS011;373;49.342;8.146;2023-04-24T15:56:04;2.60;;;1.70;;
823;SDS011;373;49.342;8.146;2023-04-24T15:58:32;2.35;;;1.40;;
823;SDS011;373;49.342;8.146;2023-04-24T16:01:00;1.70;;;1.60;;
823;SDS011;373;49.342;8.146;2023-04-24T16:03:27;1.30;;;1.20;;
823;SDS011;373;49.342;8.146;2023-04-24T16:05:55;1.77;;;1.30;;